createdAt,value
2022-10-21T00:01:08.573Z,86.66
2022-10-21T00:03:38.028Z,84.08
2022-10-21T00:06:06.730Z,86.14
2022-10-21T00:08:35.446Z,85.83
2022-10-21T00:11:06.375Z,86.32
2022-10-21T00:13:36.683Z,86.93
2022-10-21T00:16:12.432Z,86.99
2022-10-21T00:18:42.905Z,86.18
2022-10-21T00:21:14.586Z,85.62
2022-10-21T00:23:43.480Z,86.37
2022-10-21T00:26:13.513Z,85.42
2022-10-21T00:28:42.284Z,84.70
2022-10-21T00:31:13.197Z,84.75
2022-10-21T00:33:41.762Z,85.26
2022-10-21T00:36:16.071Z,83.23
2022-10-21T00:38:46.237Z,84.52
2022-10-21T00:41:16.546Z,84.30
2022-10-21T00:43:57.166Z,83.88
2022-10-21T00:47:05.700Z,82.59
2022-10-21T00:49:40.934Z,83.05
2022-10-21T00:52:22.878Z,83.02
2022-10-21T00:54:55.968Z,83.93
2022-10-21T00:57:26.602Z,82.83
2022-10-21T01:00:01.882Z,82.20
2022-10-21T01:02:31.238Z,83.66
2022-10-21T01:05:03.303Z,82.83
2022-10-21T01:07:32.145Z,82.35
2022-10-21T01:10:00.436Z,81.97
2022-10-21T01:12:46.591Z,81.82
2022-10-21T01:15:36.516Z,81.96
2022-10-21T01:18:42.937Z,81.63
2022-10-21T01:21:21.976Z,81.96
2022-10-21T01:24:27.551Z,81.84
2022-10-21T01:27:22.874Z,80.56
2022-10-21T01:30:07.177Z,80.37
2022-10-21T01:32:56.855Z,79.48
2022-10-21T01:35:50.846Z,78.39
2022-10-21T01:38:37.587Z,78.32
2022-10-21T01:41:20.762Z,77.72
2022-10-21T01:44:04.059Z,77.13
2022-10-21T01:46:56.863Z,77.38
2022-10-21T01:49:38.264Z,76.76
2022-10-21T01:52:08.602Z,76.57
2022-10-21T01:54:45.741Z,76.66
2022-10-21T01:57:18.203Z,77.25
2022-10-21T01:59:48.425Z,76.65
2022-10-21T02:02:18.661Z,76.52
2022-10-21T02:04:50.914Z,75.52
2022-10-21T02:07:19.392Z,76.00
2022-10-21T02:09:47.671Z,75.89
2022-10-21T02:12:17.771Z,75.92
2022-10-21T02:14:50.793Z,75.90
2022-10-21T02:17:22.707Z,75.52
2022-10-21T02:19:51.479Z,75.56
2022-10-21T02:22:23.794Z,75.41
2022-10-21T02:25:02.409Z,75.12
2022-10-21T02:27:30.864Z,75.68
2022-10-21T02:30:01.940Z,74.05
2022-10-21T02:32:39.292Z,74.85
2022-10-21T02:35:35.675Z,75.03
2022-10-21T02:38:31.409Z,75.42
2022-10-21T02:41:06.857Z,74.31
2022-10-21T02:43:41.090Z,73.63
2022-10-21T02:46:13.783Z,73.93
2022-10-21T02:48:46.363Z,74.01
2022-10-21T02:51:16.198Z,74.13
2022-10-21T02:53:45.067Z,74.41
2022-10-21T02:56:13.408Z,73.77
2022-10-21T02:58:41.749Z,74.41
2022-10-21T03:01:10.207Z,75.06
2022-10-21T03:03:38.564Z,74.44
2022-10-21T03:06:06.988Z,72.40
2022-10-21T03:08:35.484Z,73.87
2022-10-21T03:11:03.816Z,72.93
2022-10-21T03:13:32.114Z,72.66
2022-10-21T03:16:00.565Z,73.29
2022-10-21T03:18:28.883Z,72.39
2022-10-21T03:20:57.232Z,72.34
2022-10-21T03:23:25.546Z,72.33
2022-10-21T03:25:54.042Z,72.61
2022-10-21T03:28:22.474Z,73.55
2022-10-21T03:30:50.780Z,72.80
2022-10-21T03:33:19.261Z,72.55
2022-10-21T03:35:47.585Z,72.30
2022-10-21T03:38:16.041Z,71.53
2022-10-21T03:40:44.393Z,71.70
2022-10-21T03:43:12.722Z,71.04
2022-10-21T03:45:41.092Z,71.61
2022-10-21T03:48:09.456Z,71.62
2022-10-21T03:50:37.780Z,71.25
2022-10-21T03:53:13.802Z,71.01
2022-10-21T03:55:47.364Z,71.34
2022-10-21T03:58:15.686Z,71.15
2022-10-21T04:00:44.002Z,70.34
2022-10-21T04:03:12.395Z,71.21
2022-10-21T04:05:40.735Z,69.42
2022-10-21T04:08:09.103Z,70.40
2022-10-21T04:10:38.305Z,70.32
2022-10-21T04:13:06.669Z,70.90
2022-10-21T04:15:37.884Z,71.38
2022-10-21T04:18:07.386Z,71.49
2022-10-21T04:20:36.020Z,71.86
2022-10-21T04:23:04.383Z,70.77
2022-10-21T04:25:32.749Z,69.99
2022-10-21T04:28:01.255Z,70.63
2022-10-21T04:30:29.594Z,70.81
2022-10-21T04:32:57.931Z,68.83
2022-10-21T04:35:26.224Z,69.85
2022-10-21T04:37:54.751Z,69.41
2022-10-21T04:40:23.532Z,69.28
2022-10-21T04:42:51.965Z,68.67
2022-10-21T04:45:20.336Z,68.17
2022-10-21T04:47:48.654Z,67.66
2022-10-21T04:50:17.089Z,68.91
2022-10-21T04:52:45.419Z,68.16
2022-10-21T04:55:14.049Z,68.52
2022-10-21T04:57:43.699Z,67.88
2022-10-21T05:00:12.823Z,67.08
2022-10-21T05:02:41.476Z,67.10
2022-10-21T05:05:10.519Z,64.99
2022-10-21T05:07:38.985Z,67.47
2022-10-21T05:10:07.620Z,67.73
2022-10-21T05:15:04.339Z,67.69
2022-10-21T05:17:33.362Z,67.08
2022-10-21T05:20:01.706Z,66.90
2022-10-21T05:22:30.058Z,65.91
2022-10-21T05:24:58.453Z,67.10
2022-10-21T05:27:26.817Z,66.32
2022-10-21T05:29:55.300Z,63.06
2022-10-21T05:32:23.699Z,64.56
2022-10-21T05:34:52.077Z,66.04
2022-10-21T05:37:20.444Z,66.23
2022-10-21T05:39:48.739Z,65.87
2022-10-21T05:42:17.470Z,65.30
2022-10-21T05:44:45.763Z,65.59
2022-10-21T05:47:14.038Z,66.67
2022-10-21T05:49:42.373Z,64.79
2022-10-21T05:52:10.777Z,64.53
2022-10-21T05:54:39.103Z,65.02
2022-10-21T05:57:07.503Z,66.50
2022-10-21T05:59:35.841Z,64.78
2022-10-21T06:02:04.222Z,64.32
2022-10-21T06:04:36.411Z,64.94
2022-10-21T06:07:07.528Z,64.80
2022-10-21T06:09:35.932Z,65.15
2022-10-21T06:12:04.296Z,63.84
2022-10-21T06:14:32.661Z,62.19
2022-10-21T06:17:00.974Z,64.39
2022-10-21T06:19:31.776Z,65.98
2022-10-21T06:22:00.400Z,63.30
2022-10-21T06:24:28.744Z,64.51
2022-10-21T06:26:57.308Z,65.55
2022-10-21T06:29:26.164Z,63.90
2022-10-21T06:31:54.609Z,64.73
2022-10-21T06:34:23.425Z,63.98
2022-10-21T06:36:51.785Z,63.68
2022-10-21T06:39:20.142Z,64.95
2022-10-21T06:41:48.461Z,64.19
2022-10-21T06:44:16.807Z,62.99
2022-10-21T06:46:45.291Z,63.08
2022-10-21T06:49:13.662Z,62.61
2022-10-21T06:51:42.038Z,63.49
2022-10-21T06:54:10.431Z,63.01
2022-10-21T06:56:40.554Z,63.72
2022-10-21T06:59:08.898Z,63.57
2022-10-21T07:01:55.202Z,65.20
2022-10-21T07:04:26.066Z,64.02
2022-10-21T07:06:54.453Z,61.46
2022-10-21T07:09:23.049Z,61.45
2022-10-21T07:11:51.520Z,59.08
2022-10-21T07:14:20.031Z,58.16
2022-10-21T07:16:49.262Z,60.01
2022-10-21T07:19:17.626Z,62.77
2022-10-21T07:21:46.005Z,62.25
2022-10-21T07:24:16.281Z,61.96
2022-10-21T07:26:45.930Z,60.80
2022-10-21T07:29:14.337Z,61.05
2022-10-21T07:31:42.737Z,58.17
2022-10-21T07:34:13.682Z,61.36
2022-10-21T07:36:44.974Z,60.73
2022-10-21T07:39:17.508Z,63.53
2022-10-21T07:41:49.158Z,64.62
2022-10-21T07:44:18.771Z,63.74
2022-10-21T07:46:48.455Z,63.92
2022-10-21T07:49:18.495Z,64.43
2022-10-21T07:51:47.853Z,67.12
2022-10-21T07:54:16.454Z,63.93
2022-10-21T07:56:48.186Z,61.64
2022-10-21T07:59:19.270Z,61.72
2022-10-21T08:01:51.698Z,61.69
2022-10-21T08:04:22.639Z,63.69
2022-10-21T08:06:51.303Z,63.38
2022-10-21T08:09:19.818Z,63.29
2022-10-21T08:11:48.226Z,63.93
2022-10-21T08:14:17.341Z,63.24
2022-10-21T08:16:46.305Z,63.41
2022-10-21T08:19:30.470Z,64.87
2022-10-21T08:22:00.223Z,61.32
2022-10-21T08:24:29.463Z,64.02
2022-10-21T08:26:57.889Z,63.17
2022-10-21T08:29:26.561Z,63.33
2022-10-21T08:31:54.929Z,63.86
2022-10-21T08:34:23.404Z,63.74
2022-10-21T08:36:51.721Z,66.06
2022-10-21T08:39:25.901Z,67.74
2022-10-21T08:42:07.346Z,64.89
2022-10-21T08:44:56.358Z,63.32
2022-10-21T08:47:34.251Z,64.89
2022-10-21T08:50:19.867Z,61.90
2022-10-21T08:52:53.214Z,64.70
2022-10-21T08:55:25.327Z,62.62
2022-10-21T08:57:56.738Z,63.10
2022-10-21T09:00:30.259Z,62.08
2022-10-21T09:03:27.568Z,65.01
2022-10-21T09:06:12.917Z,65.41
2022-10-21T09:08:51.425Z,66.71
2022-10-21T09:11:27.873Z,66.70
2022-10-21T09:14:11.183Z,67.06
2022-10-21T09:17:11.149Z,67.21
2022-10-21T09:20:24.438Z,67.65
2022-10-21T09:23:23.153Z,67.50
2022-10-21T09:25:57.429Z,68.17
2022-10-21T09:28:27.601Z,68.54
2022-10-21T09:30:57.027Z,69.05
2022-10-21T09:33:35.523Z,69.20
2022-10-21T09:36:06.697Z,67.23
2022-10-21T09:38:45.945Z,67.75
2022-10-21T09:41:19.377Z,67.96
2022-10-21T09:43:50.212Z,68.80
2022-10-21T09:46:19.771Z,70.12
2022-10-21T09:51:46.415Z,70.98
2022-10-21T09:54:28.736Z,71.37
2022-10-21T09:58:01.634Z,71.31
2022-10-21T10:00:48.519Z,71.39
2022-10-21T10:03:42.317Z,71.23
2022-10-21T10:06:11.162Z,71.17
2022-10-21T10:08:48.232Z,71.65
2022-10-21T10:11:20.154Z,72.41
2022-10-21T10:13:53.204Z,72.73
2022-10-21T10:16:32.737Z,73.48
2022-10-21T10:19:25.220Z,74.46
2022-10-21T10:22:18.269Z,74.75
2022-10-21T10:24:46.840Z,75.39
2022-10-21T10:27:27.589Z,75.24
2022-10-21T10:30:00.813Z,75.36
2022-10-21T10:32:35.450Z,75.57
2022-10-21T10:35:10.153Z,76.21
2022-10-21T10:40:23.595Z,78.48
2022-10-21T10:43:01.990Z,78.42
2022-10-21T10:45:30.833Z,79.52
2022-10-21T10:48:07.846Z,80.17
2022-10-21T10:50:39.167Z,80.67
2022-10-21T10:53:24.511Z,81.28
2022-10-21T10:56:17.104Z,80.90
2022-10-21T10:58:54.382Z,80.94
2022-10-21T11:01:31.903Z,80.78
2022-10-21T11:04:24.389Z,80.45
2022-10-21T11:07:04.353Z,80.61
2022-10-21T11:09:35.386Z,80.04
2022-10-21T11:12:13.837Z,80.15
2022-10-21T11:14:42.388Z,79.94
2022-10-21T11:17:14.364Z,79.46
2022-10-21T11:19:54.930Z,80.05
2022-10-21T11:22:34.779Z,81.59
2022-10-21T11:25:34.303Z,82.10
2022-10-21T11:28:31.583Z,82.13
2022-10-21T11:31:29.696Z,82.49
2022-10-21T11:34:36.336Z,82.40
2022-10-21T11:37:29.648Z,82.23
2022-10-21T11:40:14.086Z,82.48
2022-10-21T11:42:46.345Z,82.95
2022-10-21T11:45:35.997Z,83.25
2022-10-21T11:48:13.919Z,83.62
2022-10-21T11:51:06.404Z,83.91
2022-10-21T11:53:40.590Z,84.67
2022-10-21T11:56:39.510Z,85.75
2022-10-21T11:59:34.319Z,86.66
2022-10-21T12:02:02.676Z,87.59
2022-10-21T12:04:40.632Z,87.77
2022-10-21T12:07:23.907Z,88.03
2022-10-21T12:10:13.023Z,88.19
2022-10-21T12:12:48.712Z,88.48
2022-10-21T12:15:43.334Z,88.58
2022-10-21T12:18:18.753Z,88.96
2022-10-21T12:20:50.135Z,88.83
2022-10-21T12:23:22.968Z,89.21
2022-10-21T12:26:09.532Z,89.43
2022-10-21T12:29:04.613Z,90.06
2022-10-21T12:31:35.586Z,90.47
2022-10-21T12:34:04.878Z,90.57
2022-10-21T12:36:52.373Z,90.36
2022-10-21T12:39:36.210Z,90.11
2022-10-21T12:42:15.077Z,90.11
2022-10-21T12:44:51.788Z,89.97
2022-10-21T12:47:44.148Z,89.64
2022-10-21T12:50:18.193Z,90.11
2022-10-21T12:52:49.902Z,90.51
2022-10-21T12:55:28.212Z,90.94
2022-10-21T12:58:04.281Z,91.34
2022-10-21T13:00:32.662Z,91.50
2022-10-21T13:03:08.928Z,91.16
2022-10-21T13:05:40.048Z,92.11
2022-10-21T13:08:28.567Z,91.70
2022-10-21T13:11:08.362Z,91.87
2022-10-21T13:13:46.502Z,91.86
2022-10-21T13:16:20.589Z,91.70
2022-10-21T13:18:52.352Z,91.49
2022-10-21T13:21:40.256Z,92.19
2022-10-21T13:24:08.601Z,92.78
2022-10-21T13:26:49.831Z,92.81
2022-10-21T13:29:35.243Z,92.75
2022-10-21T13:32:15.721Z,92.84
2022-10-21T13:34:55.620Z,92.93
2022-10-21T13:37:41.229Z,93.36
2022-10-21T13:40:19.405Z,92.92
2022-10-21T13:43:15.236Z,91.78
2022-10-21T13:45:58.641Z,92.51
2022-10-21T13:48:27.245Z,92.62
2022-10-21T13:50:55.871Z,92.60
2022-10-21T13:53:30.291Z,92.67
2022-10-21T13:56:04.548Z,92.72
2022-10-21T13:58:39.999Z,92.29
2022-10-21T14:01:13.272Z,91.52
2022-10-21T14:03:43.161Z,91.61
2022-10-21T14:06:20.034Z,91.96
2022-10-21T14:08:49.583Z,92.03
2022-10-21T14:11:37.390Z,91.63
2022-10-21T14:14:10.537Z,91.74
2022-10-21T14:16:50.862Z,91.44
2022-10-21T14:19:24.373Z,90.86
2022-10-21T14:21:55.955Z,90.50
2022-10-21T14:24:26.953Z,89.88
2022-10-21T14:26:56.675Z,89.52
2022-10-21T14:29:31.803Z,89.77
2022-10-21T14:32:01.608Z,89.77
2022-10-21T14:34:32.797Z,88.92
2022-10-21T14:37:09.312Z,88.94
2022-10-21T14:39:40.850Z,88.84
2022-10-21T14:42:30.116Z,88.73
2022-10-21T14:45:05.793Z,88.76
2022-10-21T14:47:34.201Z,88.48
2022-10-21T14:50:02.831Z,88.18
2022-10-21T14:52:47.394Z,87.86
2022-10-21T14:55:18.601Z,87.92
2022-10-21T14:57:55.629Z,88.91
2022-10-21T15:00:35.679Z,88.01
2022-10-21T15:03:04.537Z,87.86
2022-10-21T15:05:42.949Z,87.66
2022-10-21T15:08:16.602Z,87.62
2022-10-21T15:10:45.165Z,87.57
2022-10-21T15:13:20.917Z,87.69
2022-10-21T15:15:54.016Z,86.99
2022-10-21T15:18:33.176Z,87.07
2022-10-21T15:21:04.232Z,87.29
2022-10-21T15:23:36.504Z,87.44
2022-10-21T15:26:13.511Z,87.85
2022-10-21T15:28:42.906Z,88.51
2022-10-21T15:31:31.378Z,88.21
2022-10-21T15:33:59.723Z,88.08
2022-10-21T15:36:28.115Z,87.56
2022-10-21T15:38:56.439Z,86.61
2022-10-21T15:41:30.552Z,86.12
2022-10-21T15:44:05.248Z,86.99
2022-10-21T15:46:36.485Z,87.26
2022-10-21T15:49:16.833Z,87.62
2022-10-21T15:51:45.326Z,88.17
2022-10-21T15:54:14.301Z,88.33
2022-10-21T15:56:47.538Z,88.48
2022-10-21T15:59:25.781Z,88.03
2022-10-21T16:01:56.286Z,87.95
2022-10-21T16:04:25.798Z,88.39
2022-10-21T16:06:57.241Z,88.87
2022-10-21T16:09:29.021Z,88.87
2022-10-21T16:12:01.081Z,89.19
2022-10-21T16:14:31.277Z,89.49
2022-10-21T16:17:00.591Z,89.28
2022-10-21T16:19:29.756Z,89.35
2022-10-21T16:21:58.498Z,89.84
2022-10-21T16:24:26.921Z,90.29
2022-10-21T16:26:55.299Z,90.11
2022-10-21T16:29:25.892Z,89.81
2022-10-21T16:31:54.482Z,89.50
2022-10-21T16:34:22.878Z,89.21
2022-10-21T16:36:51.301Z,88.68
2022-10-21T16:39:26.401Z,88.97
2022-10-21T16:41:54.965Z,89.13
2022-10-21T16:44:23.449Z,89.58
2022-10-21T16:46:56.492Z,89.65
2022-10-21T16:49:27.895Z,89.93
2022-10-21T16:51:58.381Z,89.79
2022-10-21T16:54:26.681Z,90.05
2022-10-21T16:56:56.089Z,90.14
2022-10-21T16:59:24.960Z,89.91
2022-10-21T17:01:53.304Z,90.40
2022-10-21T17:04:21.636Z,90.01
2022-10-21T17:06:50.098Z,90.23
2022-10-21T17:09:20.353Z,90.26
2022-10-21T17:11:48.706Z,90.21
2022-10-21T17:14:21.010Z,90.28
2022-10-21T17:16:49.393Z,90.17
2022-10-21T17:19:17.768Z,89.94
2022-10-21T17:21:47.571Z,90.38
2022-10-21T17:24:22.511Z,90.46
2022-10-21T17:26:51.065Z,91.15
2022-10-21T17:29:19.379Z,91.41
2022-10-21T17:31:47.723Z,90.66
2022-10-21T17:34:29.033Z,90.93
2022-10-21T17:36:57.882Z,91.10
2022-10-21T17:39:27.048Z,89.34
2022-10-21T17:41:55.853Z,87.92
2022-10-21T17:44:24.197Z,88.28
2022-10-21T17:46:55.425Z,88.11
2022-10-21T17:49:25.453Z,89.30
2022-10-21T17:51:53.896Z,89.94
2022-10-21T17:54:26.589Z,90.14
2022-10-21T17:56:58.299Z,89.96
2022-10-21T17:59:27.683Z,88.75
2022-10-21T18:01:56.068Z,89.13
2022-10-21T18:04:24.621Z,89.19
2022-10-21T18:06:54.349Z,89.21
2022-10-21T18:09:22.804Z,89.51
2022-10-21T18:11:51.284Z,89.45
2022-10-21T18:14:19.690Z,89.13
2022-10-21T18:16:47.990Z,89.41
2022-10-21T18:19:17.315Z,90.15
2022-10-21T18:21:46.059Z,90.68
2022-10-21T18:24:14.464Z,91.18
2022-10-21T18:26:42.810Z,91.66
2022-10-21T18:29:11.246Z,91.39
2022-10-21T18:31:40.286Z,91.63
2022-10-21T18:34:10.295Z,91.64
2022-10-21T18:36:39.263Z,91.32
2022-10-21T18:39:08.304Z,91.10
2022-10-21T18:41:37.653Z,88.71
2022-10-21T18:44:11.623Z,88.77
2022-10-21T18:46:42.184Z,90.08
2022-10-21T18:49:13.876Z,88.80
2022-10-21T18:51:42.325Z,90.36
2022-10-21T18:54:10.663Z,90.79
2022-10-21T18:56:39.066Z,90.19
2022-10-21T18:59:07.431Z,90.83
2022-10-21T19:01:35.839Z,91.26
2022-10-21T19:04:04.314Z,91.73
2022-10-21T19:06:42.068Z,91.70
2022-10-21T19:09:18.100Z,91.73
2022-10-21T19:11:47.922Z,91.64
2022-10-21T19:14:17.388Z,91.60
2022-10-21T19:16:47.420Z,91.53
2022-10-21T19:19:17.491Z,92.17
2022-10-21T19:21:45.891Z,91.82
2022-10-21T19:24:14.361Z,91.20
2022-10-21T19:26:45.751Z,91.53
2022-10-21T19:29:17.755Z,92.32
2022-10-21T19:34:23.357Z,92.63
2022-10-21T19:36:51.793Z,92.77
2022-10-21T19:39:20.716Z,93.49
2022-10-21T19:41:49.509Z,93.10
2022-10-21T19:44:18.335Z,93.39
2022-10-21T19:46:47.007Z,93.01
2022-10-21T19:49:16.112Z,92.52
2022-10-21T19:51:44.407Z,93.58
2022-10-21T19:54:14.638Z,93.35
2022-10-21T19:56:43.446Z,93.27
2022-10-21T19:59:12.366Z,93.05
2022-10-21T20:01:40.909Z,92.67
2022-10-21T20:04:09.403Z,92.83
2022-10-21T20:06:39.555Z,93.36
2022-10-21T20:09:13.928Z,94.14
2022-10-21T20:11:43.293Z,94.07
2022-10-21T20:14:14.473Z,94.22
2022-10-21T20:16:45.248Z,93.51
2022-10-21T20:19:13.690Z,94.22
2022-10-21T20:21:42.965Z,94.86
2022-10-21T20:24:15.076Z,94.86
2022-10-21T20:26:45.292Z,94.89
2022-10-21T20:29:16.342Z,94.91
2022-10-21T20:31:44.775Z,95.15
2022-10-21T20:34:16.298Z,94.87
2022-10-21T20:36:45.993Z,94.69
2022-10-21T20:39:14.615Z,94.40
2022-10-21T20:41:43.069Z,94.45
2022-10-21T20:44:20.124Z,93.81
2022-10-21T20:46:48.584Z,94.24
2022-10-21T20:49:16.997Z,93.97
2022-10-21T20:51:45.442Z,94.00
2022-10-21T20:54:18.152Z,93.81
2022-10-21T20:56:46.807Z,93.34
2022-10-21T20:59:16.758Z,93.35
2022-10-21T21:01:47.800Z,93.52
2022-10-21T21:04:18.315Z,92.80
2022-10-21T21:06:48.995Z,92.86
2022-10-21T21:09:38.059Z,92.21
2022-10-21T21:12:08.182Z,90.50
2022-10-21T21:14:36.589Z,91.63
2022-10-21T21:17:06.013Z,92.36
2022-10-21T21:19:34.866Z,91.72
2022-10-21T21:22:04.750Z,92.37
2022-10-21T21:24:33.509Z,93.44
2022-10-21T21:27:01.959Z,93.06
2022-10-21T21:29:30.371Z,93.26
2022-10-21T21:31:58.666Z,93.68
2022-10-21T21:34:27.051Z,93.45
2022-10-21T21:36:55.374Z,93.15
2022-10-21T21:39:23.788Z,93.42
2022-10-21T21:41:52.273Z,92.58
2022-10-21T21:44:20.581Z,92.87
2022-10-21T21:46:48.910Z,93.67
2022-10-21T21:49:17.253Z,93.70
2022-10-21T21:51:45.567Z,93.48
2022-10-21T21:54:13.944Z,93.70
2022-10-21T21:56:42.306Z,93.57
2022-10-21T21:59:10.793Z,93.60
2022-10-21T22:01:39.153Z,92.04
2022-10-21T22:04:07.938Z,92.40
2022-10-21T22:06:39.360Z,91.55
2022-10-21T22:09:12.896Z,91.95
2022-10-21T22:11:41.382Z,90.75
2022-10-21T22:14:10.439Z,92.07
2022-10-21T22:16:38.903Z,92.24
2022-10-21T22:19:07.307Z,92.31
2022-10-21T22:21:35.681Z,92.34
2022-10-21T22:24:04.067Z,91.59
2022-10-21T22:26:32.421Z,92.65
2022-10-21T22:29:00.723Z,93.21
2022-10-21T22:31:30.707Z,93.12
2022-10-21T22:34:00.746Z,93.25
2022-10-21T22:36:29.853Z,93.86
2022-10-21T22:38:58.421Z,94.26
2022-10-21T22:41:27.613Z,94.37
2022-10-21T22:43:56.317Z,94.44
2022-10-21T22:46:39.923Z,94.54
2022-10-21T22:49:08.457Z,94.72
2022-10-21T22:51:36.781Z,94.67
2022-10-21T22:54:11.625Z,95.06
2022-10-21T22:56:43.681Z,95.54
2022-10-21T22:59:12.065Z,95.22
2022-10-21T23:01:40.451Z,95.67
2022-10-21T23:04:08.855Z,95.68
2022-10-21T23:06:37.329Z,95.91
2022-10-21T23:09:06.596Z,95.80
2022-10-21T23:11:35.794Z,95.42
2022-10-21T23:14:08.703Z,93.12
2022-10-21T23:16:38.051Z,94.43
2022-10-21T23:19:08.345Z,93.53
2022-10-21T23:21:37.736Z,94.20
2022-10-21T23:24:07.307Z,95.74
2022-10-21T23:26:36.748Z,96.57
2022-10-21T23:29:06.098Z,96.85
2022-10-21T23:31:34.513Z,97.28
2022-10-21T23:34:03.845Z,97.20
2022-10-21T23:36:32.309Z,97.08
2022-10-21T23:39:00.626Z,97.35
2022-10-21T23:41:29.258Z,97.68
2022-10-21T23:43:57.581Z,97.82
2022-10-21T23:48:59.138Z,96.46
2022-10-21T23:51:27.560Z,95.31
2022-10-21T23:53:55.963Z,95.02
2022-10-21T23:56:24.348Z,95.69
2022-10-21T23:58:53.704Z,95.92
